sensor_id;sensor_type;location;lat;lon;timestamp;P1;durP1;ratioP1;P2;durP2;ratioP2
6475;SDS011;3271;51.910;5.840;2023-05-10T00:02:13;23.10;;;19.05;;
6475;SDS011;3271;51.910;5.840;2023-05-10T00:04:39;22.85;;;19.40;;
6475;SDS011;3271;51.910;5.840;2023-05-10T00:07:05;21.35;;;18.45;;
6475;SDS011;3271;51.910;5.840;2023-05-10T00:09:31;22.48;;;18.95;;
6475;SDS011;3271;51.910;5.840;2023-05-10T00:11:57;23.30;;;19.60;;
6475;SDS011;3271;51.910;5.840;2023-05-10T00:14:23;22.33;;;18.40;;
6475;SDS011;3271;51.910;5.840;2023-05-10T00:16:49;25.27;;;20.38;;
6475;SDS011;3271;51.910;5.840;2023-05-10T00:19:15;22.08;;;17.27;;
6475;SDS011;3271;51.910;5.840;2023-05-10T00:21:41;24.25;;;19.45;;
6475;SDS011;3271;51.910;5.840;2023-05-10T00:24:07;23.67;;;19.00;;
6475;SDS011;3271;51.910;5.840;2023-05-10T00:26:33;21.48;;;18.73;;
6475;SDS011;3271;51.910;5.840;2023-05-10T00:28:59;24.65;;;20.55;;
6475;SDS011;3271;51.910;5.840;2023-05-10T00:31:25;22.25;;;19.15;;
6475;SDS011;3271;51.910;5.840;2023-05-10T00:33:51;23.33;;;19.88;;
6475;SDS011;3271;51.910;5.840;2023-05-10T00:36:17;26.65;;;20.67;;
6475;SDS011;3271;51.910;5.840;2023-05-10T00:38:43;21.95;;;19.17;;
6475;SDS011;3271;51.910;5.840;2023-05-10T00:41:08;23.50;;;19.38;;
6475;SDS011;3271;51.910;5.840;2023-05-10T00:43:34;24.63;;;19.50;;
6475;SDS011;3271;51.910;5.840;2023-05-10T00:46:00;23.88;;;19.70;;
6475;SDS011;3271;51.910;5.840;2023-05-10T00:48:26;22.60;;;18.88;;
6475;SDS011;3271;51.910;5.840;2023-05-10T00:50:54;24.60;;;19.38;;
6475;SDS011;3271;51.910;5.840;2023-05-10T00:53:20;23.08;;;18.88;;
6475;SDS011;3271;51.910;5.840;2023-05-10T00:55:46;23.33;;;17.65;;
6475;SDS011;3271;51.910;5.840;2023-05-10T00:58:12;21.75;;;18.73;;
6475;SDS011;3271;51.910;5.840;2023-05-10T01:00:39;21.55;;;17.65;;
6475;SDS011;3271;51.910;5.840;2023-05-10T01:03:07;20.25;;;16.00;;
6475;SDS011;3271;51.910;5.840;2023-05-10T01:05:33;17.20;;;14.75;;
6475;SDS011;3271;51.910;5.840;2023-05-10T01:07:59;17.63;;;15.30;;
6475;SDS011;3271;51.910;5.840;2023-05-10T01:10:25;20.55;;;15.93;;
6475;SDS011;3271;51.910;5.840;2023-05-10T01:12:51;17.85;;;14.93;;
6475;SDS011;3271;51.910;5.840;2023-05-10T01:15:17;17.42;;;14.32;;
6475;SDS011;3271;51.910;5.840;2023-05-10T01:17:43;18.58;;;15.13;;
6475;SDS011;3271;51.910;5.840;2023-05-10T01:20:10;17.50;;;13.57;;
6475;SDS011;3271;51.910;5.840;2023-05-10T01:22:44;17.45;;;13.45;;
6475;SDS011;3271;51.910;5.840;2023-05-10T01:35:47;18.90;;;14.70;;
6475;SDS011;3271;51.910;5.840;2023-05-10T01:41:11;19.70;;;15.10;;
6475;SDS011;3271;51.910;5.840;2023-05-10T01:46:27;18.80;;;15.15;;
6475;SDS011;3271;51.910;5.840;2023-05-10T01:48:55;20.70;;;16.30;;
6475;SDS011;3271;51.910;5.840;2023-05-10T01:51:23;23.45;;;17.40;;
6475;SDS011;3271;51.910;5.840;2023-05-10T01:53:51;22.67;;;16.13;;
6475;SDS011;3271;51.910;5.840;2023-05-10T01:56:19;23.30;;;17.77;;
6475;SDS011;3271;51.910;5.840;2023-05-10T01:58:48;21.67;;;16.77;;
6475;SDS011;3271;51.910;5.840;2023-05-10T02:01:14;22.02;;;16.67;;
6475;SDS011;3271;51.910;5.840;2023-05-10T02:03:41;27.45;;;19.02;;
6475;SDS011;3271;51.910;5.840;2023-05-10T02:06:08;21.88;;;16.75;;
6475;SDS011;3271;51.910;5.840;2023-05-10T02:08:35;24.35;;;18.45;;
6475;SDS011;3271;51.910;5.840;2023-05-10T02:11:02;25.45;;;18.20;;
6475;SDS011;3271;51.910;5.840;2023-05-10T02:13:29;25.75;;;17.55;;
6475;SDS011;3271;51.910;5.840;2023-05-10T02:15:57;23.42;;;18.15;;
6475;SDS011;3271;51.910;5.840;2023-05-10T02:18:23;24.52;;;17.98;;
6475;SDS011;3271;51.910;5.840;2023-05-10T02:20:49;25.67;;;17.58;;
6475;SDS011;3271;51.910;5.840;2023-05-10T02:23:16;24.48;;;17.88;;
6475;SDS011;3271;51.910;5.840;2023-05-10T02:25:43;25.00;;;17.88;;
6475;SDS011;3271;51.910;5.840;2023-05-10T02:28:09;22.70;;;17.40;;
6475;SDS011;3271;51.910;5.840;2023-05-10T02:30:36;28.88;;;20.10;;
6475;SDS011;3271;51.910;5.840;2023-05-10T02:33:03;24.50;;;19.45;;
6475;SDS011;3271;51.910;5.840;2023-05-10T02:35:29;28.13;;;21.35;;
6475;SDS011;3271;51.910;5.840;2023-05-10T02:37:58;29.23;;;21.25;;
6475;SDS011;3271;51.910;5.840;2023-05-10T02:40:24;26.08;;;20.17;;
6475;SDS011;3271;51.910;5.840;2023-05-10T02:42:52;28.13;;;20.65;;
6475;SDS011;3271;51.910;5.840;2023-05-10T02:45:20;30.08;;;23.17;;
6475;SDS011;3271;51.910;5.840;2023-05-10T02:47:47;25.17;;;19.85;;
6475;SDS011;3271;51.910;5.840;2023-05-10T02:50:13;28.08;;;20.38;;
6475;SDS011;3271;51.910;5.840;2023-05-10T02:52:40;28.30;;;20.45;;
6475;SDS011;3271;51.910;5.840;2023-05-10T02:55:09;25.08;;;18.38;;
6475;SDS011;3271;51.910;5.840;2023-05-10T02:57:35;24.05;;;18.80;;
6475;SDS011;3271;51.910;5.840;2023-05-10T03:00:05;27.13;;;19.60;;
6475;SDS011;3271;51.910;5.840;2023-05-10T03:02:31;25.85;;;21.00;;
6475;SDS011;3271;51.910;5.840;2023-05-10T03:04:57;27.23;;;21.10;;
6475;SDS011;3271;51.910;5.840;2023-05-10T03:07:23;29.50;;;22.73;;
6475;SDS011;3271;51.910;5.840;2023-05-10T03:09:49;29.83;;;21.33;;
6475;SDS011;3271;51.910;5.840;2023-05-10T03:12:19;30.20;;;23.42;;
6475;SDS011;3271;51.910;5.840;2023-05-10T03:14:53;30.25;;;20.85;;
6475;SDS011;3271;51.910;5.840;2023-05-10T03:17:23;27.70;;;19.83;;
6475;SDS011;3271;51.910;5.840;2023-05-10T03:19:54;30.30;;;21.75;;
6475;SDS011;3271;51.910;5.840;2023-05-10T03:22:37;31.15;;;21.15;;
6475;SDS011;3271;51.910;5.840;2023-05-10T03:25:04;29.80;;;20.42;;
6475;SDS011;3271;51.910;5.840;2023-05-10T03:27:31;28.95;;;20.13;;
6475;SDS011;3271;51.910;5.840;2023-05-10T03:29:57;29.70;;;19.20;;
6475;SDS011;3271;51.910;5.840;2023-05-10T03:32:23;28.17;;;20.60;;
6475;SDS011;3271;51.910;5.840;2023-05-10T03:34:49;29.27;;;21.52;;
6475;SDS011;3271;51.910;5.840;2023-05-10T03:37:15;32.42;;;23.88;;
6475;SDS011;3271;51.910;5.840;2023-05-10T03:39:41;32.38;;;21.73;;
6475;SDS011;3271;51.910;5.840;2023-05-10T03:42:07;31.40;;;20.73;;
6475;SDS011;3271;51.910;5.840;2023-05-10T03:44:36;32.40;;;21.25;;
6475;SDS011;3271;51.910;5.840;2023-05-10T03:47:03;32.30;;;21.60;;
6475;SDS011;3271;51.910;5.840;2023-05-10T03:49:29;27.92;;;20.48;;
6475;SDS011;3271;51.910;5.840;2023-05-10T03:51:55;27.80;;;20.15;;
6475;SDS011;3271;51.910;5.840;2023-05-10T03:54:21;31.88;;;19.35;;
6475;SDS011;3271;51.910;5.840;2023-05-10T03:56:47;32.45;;;22.65;;
6475;SDS011;3271;51.910;5.840;2023-05-10T03:59:13;32.65;;;21.75;;
6475;SDS011;3271;51.910;5.840;2023-05-10T04:01:38;32.55;;;21.40;;
6475;SDS011;3271;51.910;5.840;2023-05-10T04:04:04;32.67;;;21.90;;
6475;SDS011;3271;51.910;5.840;2023-05-10T04:06:30;33.65;;;22.13;;
6475;SDS011;3271;51.910;5.840;2023-05-10T04:08:56;30.00;;;20.85;;
6475;SDS011;3271;51.910;5.840;2023-05-10T04:11:24;27.33;;;20.10;;
6475;SDS011;3271;51.910;5.840;2023-05-10T04:13:50;28.60;;;20.52;;
6475;SDS011;3271;51.910;5.840;2023-05-10T04:16:16;23.95;;;18.55;;
6475;SDS011;3271;51.910;5.840;2023-05-10T04:18:42;26.98;;;18.58;;
6475;SDS011;3271;51.910;5.840;2023-05-10T04:21:12;24.02;;;17.55;;
6475;SDS011;3271;51.910;5.840;2023-05-10T04:23:38;25.40;;;17.65;;
6475;SDS011;3271;51.910;5.840;2023-05-10T04:26:04;28.05;;;18.65;;
6475;SDS011;3271;51.910;5.840;2023-05-10T04:28:30;25.67;;;18.40;;
6475;SDS011;3271;51.910;5.840;2023-05-10T04:31:05;26.90;;;18.30;;
6475;SDS011;3271;51.910;5.840;2023-05-10T04:33:31;25.00;;;17.38;;
6475;SDS011;3271;51.910;5.840;2023-05-10T04:35:57;24.20;;;16.42;;
6475;SDS011;3271;51.910;5.840;2023-05-10T04:38:24;24.92;;;17.83;;
6475;SDS011;3271;51.910;5.840;2023-05-10T04:40:50;20.50;;;15.15;;
6475;SDS011;3271;51.910;5.840;2023-05-10T04:43:16;23.30;;;17.25;;
6475;SDS011;3271;51.910;5.840;2023-05-10T04:45:41;22.63;;;17.52;;
6475;SDS011;3271;51.910;5.840;2023-05-10T04:48:07;25.25;;;17.00;;
6475;SDS011;3271;51.910;5.840;2023-05-10T04:50:33;25.63;;;17.58;;
6475;SDS011;3271;51.910;5.840;2023-05-10T04:52:59;24.52;;;17.27;;
6475;SDS011;3271;51.910;5.840;2023-05-10T04:55:25;25.08;;;17.48;;
6475;SDS011;3271;51.910;5.840;2023-05-10T04:57:51;25.52;;;17.75;;
6475;SDS011;3271;51.910;5.840;2023-05-10T05:00:18;22.77;;;17.80;;
6475;SDS011;3271;51.910;5.840;2023-05-10T05:02:44;26.92;;;18.80;;
6475;SDS011;3271;51.910;5.840;2023-05-10T05:05:10;25.38;;;18.45;;
6475;SDS011;3271;51.910;5.840;2023-05-10T05:07:36;25.85;;;18.05;;
6475;SDS011;3271;51.910;5.840;2023-05-10T05:10:03;24.13;;;17.52;;
6475;SDS011;3271;51.910;5.840;2023-05-10T05:12:29;24.88;;;17.20;;
6475;SDS011;3271;51.910;5.840;2023-05-10T05:14:55;24.48;;;19.02;;
6475;SDS011;3271;51.910;5.840;2023-05-10T05:17:21;24.35;;;16.92;;
6475;SDS011;3271;51.910;5.840;2023-05-10T05:19:47;26.98;;;17.50;;
6475;SDS011;3271;51.910;5.840;2023-05-10T05:22:13;25.70;;;18.30;;
6475;SDS011;3271;51.910;5.840;2023-05-10T05:24:39;25.80;;;18.55;;
6475;SDS011;3271;51.910;5.840;2023-05-10T05:27:05;22.08;;;17.15;;
6475;SDS011;3271;51.910;5.840;2023-05-10T05:29:31;26.63;;;18.73;;
6475;SDS011;3271;51.910;5.840;2023-05-10T05:31:57;23.33;;;16.33;;
6475;SDS011;3271;51.910;5.840;2023-05-10T05:34:23;29.48;;;19.73;;
6475;SDS011;3271;51.910;5.840;2023-05-10T05:36:49;29.00;;;19.35;;
6475;SDS011;3271;51.910;5.840;2023-05-10T05:39:15;31.17;;;20.65;;
6475;SDS011;3271;51.910;5.840;2023-05-10T05:41:41;29.50;;;20.80;;
6475;SDS011;3271;51.910;5.840;2023-05-10T05:44:07;33.75;;;21.83;;
6475;SDS011;3271;51.910;5.840;2023-05-10T05:46:33;33.35;;;21.73;;
6475;SDS011;3271;51.910;5.840;2023-05-10T05:48:59;32.65;;;20.85;;
6475;SDS011;3271;51.910;5.840;2023-05-10T05:51:25;32.58;;;21.60;;
6475;SDS011;3271;51.910;5.840;2023-05-10T05:53:51;35.47;;;21.92;;
6475;SDS011;3271;51.910;5.840;2023-05-10T05:56:17;32.53;;;22.48;;
6475;SDS011;3271;51.910;5.840;2023-05-10T05:58:49;31.77;;;21.45;;
6475;SDS011;3271;51.910;5.840;2023-05-10T06:01:15;26.13;;;19.48;;
6475;SDS011;3271;51.910;5.840;2023-05-10T06:03:41;27.60;;;19.55;;
6475;SDS011;3271;51.910;5.840;2023-05-10T06:06:07;27.08;;;19.30;;
6475;SDS011;3271;51.910;5.840;2023-05-10T06:08:33;28.40;;;20.13;;
6475;SDS011;3271;51.910;5.840;2023-05-10T06:10:59;26.08;;;17.73;;
6475;SDS011;3271;51.910;5.840;2023-05-10T06:13:25;26.38;;;18.40;;
6475;SDS011;3271;51.910;5.840;2023-05-10T06:15:57;29.05;;;20.50;;
6475;SDS011;3271;51.910;5.840;2023-05-10T06:18:23;25.90;;;19.45;;
6475;SDS011;3271;51.910;5.840;2023-05-10T06:20:49;24.15;;;18.17;;
6475;SDS011;3271;51.910;5.840;2023-05-10T06:23:15;28.60;;;19.75;;
6475;SDS011;3271;51.910;5.840;2023-05-10T06:25:41;29.33;;;20.73;;
6475;SDS011;3271;51.910;5.840;2023-05-10T06:28:07;29.95;;;19.98;;
6475;SDS011;3271;51.910;5.840;2023-05-10T06:30:33;30.02;;;20.17;;
6475;SDS011;3271;51.910;5.840;2023-05-10T06:32:59;27.30;;;19.77;;
6475;SDS011;3271;51.910;5.840;2023-05-10T06:35:25;26.88;;;17.88;;
6475;SDS011;3271;51.910;5.840;2023-05-10T06:37:51;27.13;;;18.45;;
6475;SDS011;3271;51.910;5.840;2023-05-10T06:40:17;30.38;;;19.25;;
6475;SDS011;3271;51.910;5.840;2023-05-10T06:42:43;29.73;;;19.13;;
6475;SDS011;3271;51.910;5.840;2023-05-10T06:45:10;26.55;;;17.55;;
6475;SDS011;3271;51.910;5.840;2023-05-10T06:47:36;29.58;;;19.38;;
6475;SDS011;3271;51.910;5.840;2023-05-10T06:50:02;24.73;;;17.52;;
6475;SDS011;3271;51.910;5.840;2023-05-10T06:52:28;29.20;;;19.10;;
6475;SDS011;3271;51.910;5.840;2023-05-10T06:54:54;24.05;;;17.13;;
6475;SDS011;3271;51.910;5.840;2023-05-10T06:57:19;24.60;;;17.38;;
6475;SDS011;3271;51.910;5.840;2023-05-10T06:59:46;28.45;;;18.27;;
6475;SDS011;3271;51.910;5.840;2023-05-10T07:02:12;27.70;;;19.50;;
6475;SDS011;3271;51.910;5.840;2023-05-10T07:04:39;29.35;;;19.27;;
6475;SDS011;3271;51.910;5.840;2023-05-10T07:07:05;29.35;;;18.73;;
6475;SDS011;3271;51.910;5.840;2023-05-10T07:09:31;28.90;;;19.15;;
6475;SDS011;3271;51.910;5.840;2023-05-10T07:11:57;26.48;;;18.52;;
6475;SDS011;3271;51.910;5.840;2023-05-10T07:14:23;26.60;;;19.02;;
6475;SDS011;3271;51.910;5.840;2023-05-10T07:16:49;31.35;;;19.08;;
6475;SDS011;3271;51.910;5.840;2023-05-10T07:19:15;23.92;;;18.02;;
6475;SDS011;3271;51.910;5.840;2023-05-10T07:21:41;23.75;;;17.80;;
6475;SDS011;3271;51.910;5.840;2023-05-10T07:24:08;26.50;;;18.15;;
6475;SDS011;3271;51.910;5.840;2023-05-10T07:26:34;25.63;;;18.10;;
6475;SDS011;3271;51.910;5.840;2023-05-10T07:29:00;28.60;;;20.27;;
6475;SDS011;3271;51.910;5.840;2023-05-10T07:31:26;29.33;;;19.35;;
6475;SDS011;3271;51.910;5.840;2023-05-10T07:33:52;29.73;;;21.42;;
6475;SDS011;3271;51.910;5.840;2023-05-10T07:36:18;29.20;;;20.70;;
6475;SDS011;3271;51.910;5.840;2023-05-10T07:38:44;30.48;;;20.77;;
6475;SDS011;3271;51.910;5.840;2023-05-10T07:41:11;32.38;;;20.73;;
6475;SDS011;3271;51.910;5.840;2023-05-10T07:43:37;27.80;;;19.85;;
6475;SDS011;3271;51.910;5.840;2023-05-10T07:46:03;27.67;;;20.55;;
6475;SDS011;3271;51.910;5.840;2023-05-10T07:48:30;32.10;;;21.50;;
6475;SDS011;3271;51.910;5.840;2023-05-10T07:50:56;29.80;;;20.98;;
6475;SDS011;3271;51.910;5.840;2023-05-10T07:53:22;27.40;;;21.70;;
6475;SDS011;3271;51.910;5.840;2023-05-10T07:55:51;27.80;;;19.48;;
6475;SDS011;3271;51.910;5.840;2023-05-10T07:58:19;28.83;;;19.65;;
6475;SDS011;3271;51.910;5.840;2023-05-10T08:00:45;26.02;;;20.52;;
6475;SDS011;3271;51.910;5.840;2023-05-10T08:03:11;30.95;;;20.75;;
6475;SDS011;3271;51.910;5.840;2023-05-10T08:05:37;29.35;;;19.88;;
6475;SDS011;3271;51.910;5.840;2023-05-10T08:08:03;26.65;;;19.67;;
6475;SDS011;3271;51.910;5.840;2023-05-10T08:10:29;28.52;;;20.00;;
6475;SDS011;3271;51.910;5.840;2023-05-10T08:12:55;26.52;;;19.15;;
6475;SDS011;3271;51.910;5.840;2023-05-10T08:15:23;26.88;;;19.65;;
6475;SDS011;3271;51.910;5.840;2023-05-10T08:17:51;30.52;;;21.38;;
6475;SDS011;3271;51.910;5.840;2023-05-10T08:20:17;29.58;;;19.52;;
6475;SDS011;3271;51.910;5.840;2023-05-10T08:22:44;29.35;;;20.50;;
6475;SDS011;3271;51.910;5.840;2023-05-10T08:25:10;30.30;;;22.58;;
6475;SDS011;3271;51.910;5.840;2023-05-10T08:27:36;30.70;;;20.27;;
6475;SDS011;3271;51.910;5.840;2023-05-10T08:30:02;30.08;;;20.80;;
6475;SDS011;3271;51.910;5.840;2023-05-10T08:32:28;33.55;;;21.02;;
6475;SDS011;3271;51.910;5.840;2023-05-10T08:34:54;27.38;;;17.95;;
6475;SDS011;3271;51.910;5.840;2023-05-10T08:37:23;24.05;;;16.17;;
6475;SDS011;3271;51.910;5.840;2023-05-10T08:39:48;21.45;;;14.43;;
6475;SDS011;3271;51.910;5.840;2023-05-10T08:42:16;22.05;;;15.02;;
6475;SDS011;3271;51.910;5.840;2023-05-10T08:44:42;21.63;;;15.02;;
6475;SDS011;3271;51.910;5.840;2023-05-10T08:47:08;21.23;;;13.80;;
6475;SDS011;3271;51.910;5.840;2023-05-10T08:49:34;20.95;;;14.13;;
6475;SDS011;3271;51.910;5.840;2023-05-10T08:52:04;20.23;;;13.85;;
6475;SDS011;3271;51.910;5.840;2023-05-10T08:54:33;21.70;;;14.07;;
6475;SDS011;3271;51.910;5.840;2023-05-10T08:56:59;20.50;;;12.95;;
6475;SDS011;3271;51.910;5.840;2023-05-10T08:59:25;18.80;;;12.77;;
6475;SDS011;3271;51.910;5.840;2023-05-10T09:01:51;17.80;;;12.68;;
6475;SDS011;3271;51.910;5.840;2023-05-10T09:04:18;12.93;;;9.45;;
6475;SDS011;3271;51.910;5.840;2023-05-10T09:06:44;14.60;;;9.95;;
6475;SDS011;3271;51.910;5.840;2023-05-10T09:09:10;10.30;;;7.68;;
6475;SDS011;3271;51.910;5.840;2023-05-10T09:11:36;11.68;;;7.20;;
6475;SDS011;3271;51.910;5.840;2023-05-10T09:14:02;10.80;;;7.10;;
6475;SDS011;3271;51.910;5.840;2023-05-10T09:16:28;8.95;;;5.97;;
6475;SDS011;3271;51.910;5.840;2023-05-10T09:18:54;7.03;;;5.80;;
6475;SDS011;3271;51.910;5.840;2023-05-10T09:21:20;8.88;;;7.07;;
6475;SDS011;3271;51.910;5.840;2023-05-10T09:23:46;9.43;;;6.80;;
6475;SDS011;3271;51.910;5.840;2023-05-10T09:26:14;7.38;;;6.13;;
6475;SDS011;3271;51.910;5.840;2023-05-10T09:28:51;8.25;;;7.15;;
6475;SDS011;3271;51.910;5.840;2023-05-10T09:31:17;9.95;;;7.57;;
6475;SDS011;3271;51.910;5.840;2023-05-10T09:33:43;8.50;;;7.28;;
6475;SDS011;3271;51.910;5.840;2023-05-10T09:36:10;8.57;;;6.80;;
6475;SDS011;3271;51.910;5.840;2023-05-10T09:38:50;9.20;;;7.00;;
6475;SDS011;3271;51.910;5.840;2023-05-10T09:41:20;8.80;;;6.55;;
6475;SDS011;3271;51.910;5.840;2023-05-10T09:43:46;7.47;;;6.13;;
6475;SDS011;3271;51.910;5.840;2023-05-10T09:46:12;6.85;;;5.93;;
6475;SDS011;3271;51.910;5.840;2023-05-10T09:48:42;9.25;;;6.72;;
6475;SDS011;3271;51.910;5.840;2023-05-10T09:51:08;8.70;;;6.93;;
6475;SDS011;3271;51.910;5.840;2023-05-10T09:53:34;9.05;;;6.57;;
6475;SDS011;3271;51.910;5.840;2023-05-10T09:56:00;7.25;;;5.95;;
6475;SDS011;3271;51.910;5.840;2023-05-10T09:58:26;9.15;;;6.57;;
6475;SDS011;3271;51.910;5.840;2023-05-10T10:00:52;8.90;;;6.90;;
6475;SDS011;3271;51.910;5.840;2023-05-10T10:03:20;8.95;;;6.43;;
6475;SDS011;3271;51.910;5.840;2023-05-10T10:05:47;8.73;;;6.57;;
6475;SDS011;3271;51.910;5.840;2023-05-10T10:08:14;8.98;;;6.32;;
6475;SDS011;3271;51.910;5.840;2023-05-10T10:10:40;8.27;;;7.28;;
6475;SDS011;3271;51.910;5.840;2023-05-10T10:13:09;8.60;;;6.68;;
6475;SDS011;3271;51.910;5.840;2023-05-10T10:15:34;8.10;;;6.18;;
6475;SDS011;3271;51.910;5.840;2023-05-10T10:18:01;10.43;;;6.53;;
6475;SDS011;3271;51.910;5.840;2023-05-10T10:20:29;8.45;;;6.50;;
6475;SDS011;3271;51.910;5.840;2023-05-10T10:22:55;8.95;;;6.50;;
6475;SDS011;3271;51.910;5.840;2023-05-10T10:25:21;7.47;;;6.25;;
6475;SDS011;3271;51.910;5.840;2023-05-10T10:27:49;9.48;;;7.00;;
6475;SDS011;3271;51.910;5.840;2023-05-10T10:35:21;9.40;;;6.45;;
6475;SDS011;3271;51.910;5.840;2023-05-10T10:37:47;8.38;;;6.28;;
6475;SDS011;3271;51.910;5.840;2023-05-10T10:40:23;10.02;;;7.75;;
6475;SDS011;3271;51.910;5.840;2023-05-10T10:42:50;9.93;;;6.82;;
6475;SDS011;3271;51.910;5.840;2023-05-10T10:45:16;7.60;;;6.00;;
6475;SDS011;3271;51.910;5.840;2023-05-10T10:47:42;8.55;;;6.93;;
6475;SDS011;3271;51.910;5.840;2023-05-10T10:50:08;9.48;;;7.15;;
6475;SDS011;3271;51.910;5.840;2023-05-10T10:52:36;9.75;;;7.10;;
6475;SDS011;3271;51.910;5.840;2023-05-10T10:55:08;8.18;;;7.15;;
6475;SDS011;3271;51.910;5.840;2023-05-10T11:02:49;9.15;;;7.80;;
6475;SDS011;3271;51.910;5.840;2023-05-10T11:10:49;9.40;;;7.55;;
6475;SDS011;3271;51.910;5.840;2023-05-10T11:13:16;9.00;;;7.40;;
6475;SDS011;3271;51.910;5.840;2023-05-10T11:15:52;9.38;;;7.15;;
6475;SDS011;3271;51.910;5.840;2023-05-10T11:20:51;8.30;;;6.55;;
6475;SDS011;3271;51.910;5.840;2023-05-10T11:23:18;8.65;;;7.00;;
6475;SDS011;3271;51.910;5.840;2023-05-10T11:25:45;8.63;;;7.13;;
6475;SDS011;3271;51.910;5.840;2023-05-10T11:28:12;10.25;;;7.00;;
6475;SDS011;3271;51.910;5.840;2023-05-10T11:30:38;9.85;;;7.25;;
6475;SDS011;3271;51.910;5.840;2023-05-10T11:33:05;8.70;;;7.15;;
6475;SDS011;3271;51.910;5.840;2023-05-10T11:35:31;8.55;;;6.55;;
6475;SDS011;3271;51.910;5.840;2023-05-10T11:38:02;9.00;;;7.30;;
6475;SDS011;3271;51.910;5.840;2023-05-10T11:40:28;10.30;;;7.20;;
6475;SDS011;3271;51.910;5.840;2023-05-10T11:42:55;8.20;;;5.57;;
6475;SDS011;3271;51.910;5.840;2023-05-10T11:45:23;10.30;;;7.43;;
6475;SDS011;3271;51.910;5.840;2023-05-10T11:47:49;7.20;;;6.07;;
6475;SDS011;3271;51.910;5.840;2023-05-10T11:50:15;9.55;;;6.57;;
6475;SDS011;3271;51.910;5.840;2023-05-10T11:52:41;10.63;;;5.95;;
6475;SDS011;3271;51.910;5.840;2023-05-10T11:55:07;8.85;;;7.45;;
6475;SDS011;3271;51.910;5.840;2023-05-10T11:57:33;9.27;;;6.82;;
6475;SDS011;3271;51.910;5.840;2023-05-10T11:59:59;8.88;;;6.30;;
6475;SDS011;3271;51.910;5.840;2023-05-10T12:02:25;8.30;;;5.72;;
6475;SDS011;3271;51.910;5.840;2023-05-10T12:04:51;8.15;;;6.35;;
6475;SDS011;3271;51.910;5.840;2023-05-10T12:07:17;8.10;;;6.80;;
6475;SDS011;3271;51.910;5.840;2023-05-10T12:12:34;6.63;;;5.38;;
6475;SDS011;3271;51.910;5.840;2023-05-10T12:15:01;7.72;;;6.80;;
6475;SDS011;3271;51.910;5.840;2023-05-10T12:17:28;7.57;;;5.60;;
6475;SDS011;3271;51.910;5.840;2023-05-10T12:19:58;9.38;;;5.95;;
6475;SDS011;3271;51.910;5.840;2023-05-10T12:22:24;6.55;;;5.15;;
6475;SDS011;3271;51.910;5.840;2023-05-10T12:24:50;6.18;;;5.55;;
6475;SDS011;3271;51.910;5.840;2023-05-10T12:27:16;6.43;;;4.97;;
6475;SDS011;3271;51.910;5.840;2023-05-10T12:29:42;5.95;;;4.97;;
6475;SDS011;3271;51.910;5.840;2023-05-10T12:32:09;5.80;;;5.10;;
6475;SDS011;3271;51.910;5.840;2023-05-10T12:34:35;6.13;;;5.18;;
6475;SDS011;3271;51.910;5.840;2023-05-10T12:37:03;6.53;;;4.43;;
6475;SDS011;3271;51.910;5.840;2023-05-10T12:39:39;8.73;;;5.93;;
6475;SDS011;3271;51.910;5.840;2023-05-10T12:42:05;8.00;;;5.78;;
6475;SDS011;3271;51.910;5.840;2023-05-10T12:44:32;6.35;;;5.68;;
6475;SDS011;3271;51.910;5.840;2023-05-10T12:46:57;6.25;;;5.28;;
6475;SDS011;3271;51.910;5.840;2023-05-10T12:49:23;8.50;;;5.55;;
6475;SDS011;3271;51.910;5.840;2023-05-10T12:51:49;6.20;;;5.43;;
6475;SDS011;3271;51.910;5.840;2023-05-10T12:54:15;6.32;;;5.50;;
6475;SDS011;3271;51.910;5.840;2023-05-10T12:56:41;8.50;;;5.55;;
6475;SDS011;3271;51.910;5.840;2023-05-10T12:59:07;7.43;;;6.13;;
6475;SDS011;3271;51.910;5.840;2023-05-10T13:01:33;6.07;;;5.22;;
6475;SDS011;3271;51.910;5.840;2023-05-10T13:03:59;7.47;;;5.63;;
6475;SDS011;3271;51.910;5.840;2023-05-10T13:06:25;6.13;;;5.40;;
6475;SDS011;3271;51.910;5.840;2023-05-10T13:08:51;7.78;;;5.78;;
6475;SDS011;3271;51.910;5.840;2023-05-10T13:11:17;7.70;;;5.47;;
6475;SDS011;3271;51.910;5.840;2023-05-10T13:13:44;7.55;;;5.70;;
6475;SDS011;3271;51.910;5.840;2023-05-10T13:16:10;6.85;;;5.75;;
6475;SDS011;3271;51.910;5.840;2023-05-10T13:18:36;8.45;;;6.57;;
6475;SDS011;3271;51.910;5.840;2023-05-10T13:21:02;7.88;;;5.82;;
6475;SDS011;3271;51.910;5.840;2023-05-10T13:23:30;8.30;;;7.07;;
6475;SDS011;3271;51.910;5.840;2023-05-10T13:25:56;7.68;;;6.88;;
6475;SDS011;3271;51.910;5.840;2023-05-10T13:28:22;8.85;;;7.95;;
6475;SDS011;3271;51.910;5.840;2023-05-10T13:30:48;9.05;;;7.43;;
6475;SDS011;3271;51.910;5.840;2023-05-10T13:33:14;9.75;;;8.85;;
6475;SDS011;3271;51.910;5.840;2023-05-10T13:35:40;8.43;;;7.60;;
6475;SDS011;3271;51.910;5.840;2023-05-10T13:38:05;8.65;;;7.85;;
6475;SDS011;3271;51.910;5.840;2023-05-10T13:40:32;7.82;;;7.10;;
6475;SDS011;3271;51.910;5.840;2023-05-10T13:42:58;8.48;;;7.68;;
6475;SDS011;3271;51.910;5.840;2023-05-10T13:45:24;8.25;;;7.43;;
6475;SDS011;3271;51.910;5.840;2023-05-10T13:47:50;7.97;;;7.18;;
6475;SDS011;3271;51.910;5.840;2023-05-10T13:50:16;7.32;;;6.60;;
6475;SDS011;3271;51.910;5.840;2023-05-10T13:52:43;7.53;;;6.82;;
6475;SDS011;3271;51.910;5.840;2023-05-10T13:55:09;7.82;;;7.03;;
6475;SDS011;3271;51.910;5.840;2023-05-10T13:57:37;7.72;;;7.13;;
6475;SDS011;3271;51.910;5.840;2023-05-10T14:00:03;8.10;;;7.40;;
6475;SDS011;3271;51.910;5.840;2023-05-10T14:02:29;8.27;;;7.47;;
6475;SDS011;3271;51.910;5.840;2023-05-10T14:04:55;8.20;;;7.50;;
6475;SDS011;3271;51.910;5.840;2023-05-10T14:07:21;8.02;;;7.18;;
6475;SDS011;3271;51.910;5.840;2023-05-10T14:09:47;8.27;;;7.45;;
6475;SDS011;3271;51.910;5.840;2023-05-10T14:12:13;7.93;;;7.22;;
6475;SDS011;3271;51.910;5.840;2023-05-10T14:14:39;7.80;;;7.10;;
6475;SDS011;3271;51.910;5.840;2023-05-10T14:17:05;7.63;;;6.82;;
6475;SDS011;3271;51.910;5.840;2023-05-10T14:19:31;6.97;;;6.38;;
6475;SDS011;3271;51.910;5.840;2023-05-10T14:21:58;8.93;;;8.02;;
6475;SDS011;3271;51.910;5.840;2023-05-10T14:24:24;7.68;;;6.88;;
6475;SDS011;3271;51.910;5.840;2023-05-10T14:26:50;7.82;;;7.13;;
6475;SDS011;3271;51.910;5.840;2023-05-10T14:29:18;8.30;;;7.50;;
6475;SDS011;3271;51.910;5.840;2023-05-10T14:31:44;8.32;;;7.63;;
6475;SDS011;3271;51.910;5.840;2023-05-10T14:34:10;7.70;;;7.00;;
6475;SDS011;3271;51.910;5.840;2023-05-10T14:36:36;8.60;;;7.78;;
6475;SDS011;3271;51.910;5.840;2023-05-10T14:39:02;9.35;;;8.55;;
6475;SDS011;3271;51.910;5.840;2023-05-10T14:41:28;6.93;;;6.32;;
6475;SDS011;3271;51.910;5.840;2023-05-10T14:43:55;5.80;;;5.30;;
6475;SDS011;3271;51.910;5.840;2023-05-10T14:46:21;5.53;;;4.88;;
6475;SDS011;3271;51.910;5.840;2023-05-10T14:48:47;5.75;;;5.15;;
6475;SDS011;3271;51.910;5.840;2023-05-10T14:51:13;4.93;;;4.50;;
6475;SDS011;3271;51.910;5.840;2023-05-10T14:53:38;4.70;;;4.30;;
6475;SDS011;3271;51.910;5.840;2023-05-10T14:56:05;4.72;;;4.32;;
6475;SDS011;3271;51.910;5.840;2023-05-10T14:58:31;6.13;;;5.13;;
6475;SDS011;3271;51.910;5.840;2023-05-10T15:00:57;5.47;;;4.85;;
6475;SDS011;3271;51.910;5.840;2023-05-10T15:03:23;6.30;;;4.75;;
6475;SDS011;3271;51.910;5.840;2023-05-10T15:05:49;7.65;;;5.95;;
6475;SDS011;3271;51.910;5.840;2023-05-10T15:08:16;5.50;;;4.97;;
6475;SDS011;3271;51.910;5.840;2023-05-10T15:10:42;7.47;;;5.50;;
6475;SDS011;3271;51.910;5.840;2023-05-10T15:13:08;6.18;;;5.57;;
6475;SDS011;3271;51.910;5.840;2023-05-10T15:15:34;6.00;;;5.10;;
6475;SDS011;3271;51.910;5.840;2023-05-10T15:18:00;4.60;;;4.20;;
6475;SDS011;3271;51.910;5.840;2023-05-10T15:20:26;4.30;;;3.90;;
6475;SDS011;3271;51.910;5.840;2023-05-10T15:22:52;4.55;;;4.10;;
6475;SDS011;3271;51.910;5.840;2023-05-10T15:25:17;5.63;;;3.72;;
6475;SDS011;3271;51.910;5.840;2023-05-10T15:27:43;6.57;;;3.90;;
6475;SDS011;3271;51.910;5.840;2023-05-10T15:30:10;4.63;;;3.65;;
6475;SDS011;3271;51.910;5.840;2023-05-10T15:32:36;3.85;;;3.40;;